sensor_id;sensor_type;location;lat;lon;timestamp;pressure;altitude;pressure_sealevel;temperature;humidity
51986;BME280;38002;53.296;6.600;2022-09-27T00:02:37;99603.75;;;10.68;88.21
51986;BME280;38002;53.296;6.600;2022-09-27T00:07:38;99605.81;;;10.66;88.04
51986;BME280;38002;53.296;6.600;2022-09-27T00:12:38;99592.78;;;10.62;88.05
51986;BME280;38002;53.296;6.600;2022-09-27T00:17:39;99593.19;;;10.59;88.36
51986;BME280;38002;53.296;6.600;2022-09-27T00:22:40;99595.06;;;10.58;88.05
51986;BME280;38002;53.296;6.600;2022-09-27T00:27:41;99600.31;;;10.60;88.29
51986;BME280;38002;53.296;6.600;2022-09-27T00:32:41;99616.44;;;10.61;88.60
51986;BME280;38002;53.296;6.600;2022-09-27T00:37:42;99593.00;;;10.60;88.48
51986;BME280;38002;53.296;6.600;2022-09-27T00:42:42;99596.94;;;10.58;88.31
51986;BME280;38002;53.296;6.600;2022-09-27T00:47:50;99601.53;;;10.57;88.36
51986;BME280;38002;53.296;6.600;2022-09-27T00:58:14;99601.28;;;10.52;88.93
51986;BME280;38002;53.296;6.600;2022-09-27T01:03:24;99608.97;;;10.48;88.27
51986;BME280;38002;53.296;6.600;2022-09-27T01:08:27;99604.03;;;10.37;88.64
51986;BME280;38002;53.296;6.600;2022-09-27T01:14:21;99608.75;;;10.29;88.56
51986;BME280;38002;53.296;6.600;2022-09-27T01:35:06;99596.56;;;10.10;88.25
51986;BME280;38002;53.296;6.600;2022-09-27T01:40:22;99599.84;;;10.06;88.79
51986;BME280;38002;53.296;6.600;2022-09-27T01:45:34;99613.44;;;10.06;88.31
51986;BME280;38002;53.296;6.600;2022-09-27T01:56:23;99608.28;;;10.11;88.89
51986;BME280;38002;53.296;6.600;2022-09-27T02:01:27;99610.28;;;10.17;88.42
51986;BME280;38002;53.296;6.600;2022-09-27T02:06:33;99604.84;;;10.17;88.86
51986;BME280;38002;53.296;6.600;2022-09-27T02:11:37;99633.31;;;10.21;88.33
51986;BME280;38002;53.296;6.600;2022-09-27T02:16:58;99623.66;;;10.18;88.51
51986;BME280;38002;53.296;6.600;2022-09-27T02:27:30;99595.28;;;10.21;88.11
51986;BME280;38002;53.296;6.600;2022-09-27T02:32:32;99593.97;;;10.17;89.00
51986;BME280;38002;53.296;6.600;2022-09-27T02:37:33;99605.69;;;10.17;88.94
51986;BME280;38002;53.296;6.600;2022-09-27T02:42:34;99613.84;;;10.17;88.94
51986;BME280;38002;53.296;6.600;2022-09-27T02:47:59;99618.44;;;10.17;88.52
51986;BME280;38002;53.296;6.600;2022-09-27T02:53:20;99619.44;;;10.16;88.35
51986;BME280;38002;53.296;6.600;2022-09-27T03:03:53;99627.84;;;10.06;88.22
51986;BME280;38002;53.296;6.600;2022-09-27T03:08:55;99617.38;;;10.03;88.67
51986;BME280;38002;53.296;6.600;2022-09-27T03:13:56;99597.44;;;9.96;88.43
51986;BME280;38002;53.296;6.600;2022-09-27T03:18:56;99599.88;;;9.91;88.59
51986;BME280;38002;53.296;6.600;2022-09-27T03:23:57;99565.59;;;9.75;88.32
51986;BME280;38002;53.296;6.600;2022-09-27T03:28:57;99582.63;;;9.84;88.56
51986;BME280;38002;53.296;6.600;2022-09-27T03:33:58;99600.53;;;9.78;87.80
51986;BME280;38002;53.296;6.600;2022-09-27T03:38:58;99600.91;;;9.75;87.89
51986;BME280;38002;53.296;6.600;2022-09-27T03:43:58;99600.25;;;9.73;87.75
51986;BME280;38002;53.296;6.600;2022-09-27T03:48:59;99587.44;;;9.67;87.87
51986;BME280;38002;53.296;6.600;2022-09-27T03:53:59;99603.25;;;9.64;88.06
51986;BME280;38002;53.296;6.600;2022-09-27T03:59:00;99612.63;;;9.61;88.58
51986;BME280;38002;53.296;6.600;2022-09-27T04:04:00;99614.66;;;9.59;88.70
51986;BME280;38002;53.296;6.600;2022-09-27T04:09:01;99605.88;;;9.57;88.75
51986;BME280;38002;53.296;6.600;2022-09-27T04:14:02;99607.06;;;9.54;88.08
51986;BME280;38002;53.296;6.600;2022-09-27T04:19:05;99611.88;;;9.52;89.57
51986;BME280;38002;53.296;6.600;2022-09-27T04:24:06;99627.94;;;9.54;88.88
51986;BME280;38002;53.296;6.600;2022-09-27T04:29:06;99627.78;;;9.55;88.32
51986;BME280;38002;53.296;6.600;2022-09-27T04:34:09;99624.22;;;9.55;88.51
51986;BME280;38002;53.296;6.600;2022-09-27T04:39:09;99617.09;;;9.54;88.33
51986;BME280;38002;53.296;6.600;2022-09-27T04:44:10;99617.94;;;9.54;88.97
51986;BME280;38002;53.296;6.600;2022-09-27T04:49:10;99607.94;;;9.55;88.22
51986;BME280;38002;53.296;6.600;2022-09-27T04:54:11;99623.38;;;9.54;88.48
51986;BME280;38002;53.296;6.600;2022-09-27T04:59:11;99633.56;;;9.52;89.22
51986;BME280;38002;53.296;6.600;2022-09-27T05:04:12;99652.75;;;9.51;88.27
51986;BME280;38002;53.296;6.600;2022-09-27T05:09:12;99662.75;;;9.50;88.65
51986;BME280;38002;53.296;6.600;2022-09-27T05:14:12;99660.25;;;9.49;88.19
51986;BME280;38002;53.296;6.600;2022-09-27T05:19:13;99661.25;;;9.48;88.35
51986;BME280;38002;53.296;6.600;2022-09-27T05:24:13;99656.19;;;9.45;89.31
51986;BME280;38002;53.296;6.600;2022-09-27T05:29:14;99646.38;;;9.44;88.41
51986;BME280;38002;53.296;6.600;2022-09-27T05:34:14;99647.41;;;9.43;88.55
51986;BME280;38002;53.296;6.600;2022-09-27T05:39:15;99663.00;;;9.41;88.25
51986;BME280;38002;53.296;6.600;2022-09-27T05:44:16;99655.91;;;9.40;88.69
51986;BME280;38002;53.296;6.600;2022-09-27T05:49:17;99657.25;;;9.44;88.89
51986;BME280;38002;53.296;6.600;2022-09-27T05:54:17;99658.91;;;9.45;89.32
51986;BME280;38002;53.296;6.600;2022-09-27T05:59:17;99658.72;;;9.46;88.74
51986;BME280;38002;53.296;6.600;2022-09-27T06:04:19;99667.72;;;9.47;88.80
51986;BME280;38002;53.296;6.600;2022-09-27T06:09:20;99680.25;;;9.48;89.06
51986;BME280;38002;53.296;6.600;2022-09-27T06:14:21;99665.66;;;9.49;89.05
51986;BME280;38002;53.296;6.600;2022-09-27T06:19:21;99649.75;;;9.46;88.77
51986;BME280;38002;53.296;6.600;2022-09-27T06:24:21;99642.44;;;9.46;88.69
51986;BME280;38002;53.296;6.600;2022-09-27T06:29:22;99652.28;;;9.47;89.06
51986;BME280;38002;53.296;6.600;2022-09-27T06:34:22;99667.53;;;9.48;89.41
51986;BME280;38002;53.296;6.600;2022-09-27T06:39:23;99680.56;;;9.53;89.06
51986;BME280;38002;53.296;6.600;2022-09-27T06:44:23;99685.78;;;9.54;88.81
51986;BME280;38002;53.296;6.600;2022-09-27T06:49:24;99694.13;;;9.53;89.22
51986;BME280;38002;53.296;6.600;2022-09-27T06:54:24;99696.16;;;9.51;88.82
51986;BME280;38002;53.296;6.600;2022-09-27T06:59:25;99700.75;;;9.50;88.56
51986;BME280;38002;53.296;6.600;2022-09-27T07:04:44;99696.34;;;9.49;89.17
51986;BME280;38002;53.296;6.600;2022-09-27T07:09:44;99698.69;;;9.52;89.19
51986;BME280;38002;53.296;6.600;2022-09-27T07:14:44;99683.69;;;9.42;89.18
51986;BME280;38002;53.296;6.600;2022-09-27T07:19:45;99706.75;;;9.61;89.17
51986;BME280;38002;53.296;6.600;2022-09-27T07:24:46;99710.78;;;9.65;89.39
51986;BME280;38002;53.296;6.600;2022-09-27T07:29:46;99718.22;;;9.71;89.33
51986;BME280;38002;53.296;6.600;2022-09-27T07:34:47;99709.47;;;9.75;89.33
51986;BME280;38002;53.296;6.600;2022-09-27T07:39:47;99705.88;;;9.83;89.79
51986;BME280;38002;53.296;6.600;2022-09-27T07:44:47;99719.16;;;9.92;88.97
51986;BME280;38002;53.296;6.600;2022-09-27T07:49:48;99726.94;;;10.10;89.28
51986;BME280;38002;53.296;6.600;2022-09-27T07:54:48;99734.47;;;10.23;89.26
51986;BME280;38002;53.296;6.600;2022-09-27T07:59:49;99731.28;;;10.34;89.24
51986;BME280;38002;53.296;6.600;2022-09-27T08:04:49;99730.53;;;10.40;89.01
51986;BME280;38002;53.296;6.600;2022-09-27T08:09:50;99723.03;;;10.42;88.89
51986;BME280;38002;53.296;6.600;2022-09-27T08:14:51;99724.16;;;10.48;88.89
51986;BME280;38002;53.296;6.600;2022-09-27T08:19:51;99719.81;;;10.53;88.75
51986;BME280;38002;53.296;6.600;2022-09-27T08:24:52;99736.69;;;10.63;88.70
51986;BME280;38002;53.296;6.600;2022-09-27T08:29:53;99750.19;;;10.71;88.63
51986;BME280;38002;53.296;6.600;2022-09-27T08:34:53;99743.03;;;10.85;88.89
51986;BME280;38002;53.296;6.600;2022-09-27T08:39:53;99751.41;;;11.05;88.75
51986;BME280;38002;53.296;6.600;2022-09-27T08:45:15;99752.66;;;11.23;88.84
51986;BME280;38002;53.296;6.600;2022-09-27T08:55:26;99755.31;;;11.59;88.14
51986;BME280;38002;53.296;6.600;2022-09-27T09:00:29;99755.31;;;11.59;87.91
51986;BME280;38002;53.296;6.600;2022-09-27T09:05:32;99753.97;;;11.49;87.78
51986;BME280;38002;53.296;6.600;2022-09-27T09:10:52;99764.72;;;11.35;87.70
51986;BME280;38002;53.296;6.600;2022-09-27T09:16:39;99766.53;;;11.28;87.60
51986;BME280;38002;53.296;6.600;2022-09-27T09:27:09;99775.72;;;11.27;87.51
51986;BME280;38002;53.296;6.600;2022-09-27T09:37:38;99777.13;;;11.38;87.88
51986;BME280;38002;53.296;6.600;2022-09-27T09:42:49;99768.59;;;11.48;87.93
51986;BME280;38002;53.296;6.600;2022-09-27T09:53:18;99765.06;;;11.47;87.58
51986;BME280;38002;53.296;6.600;2022-09-27T09:58:21;99771.00;;;11.36;87.63
51986;BME280;38002;53.296;6.600;2022-09-27T10:03:23;99766.94;;;11.25;87.30
51986;BME280;38002;53.296;6.600;2022-09-27T10:08:23;99771.53;;;11.25;87.77
51986;BME280;38002;53.296;6.600;2022-09-27T10:13:24;99782.09;;;11.34;87.94
51986;BME280;38002;53.296;6.600;2022-09-27T10:18:25;99768.81;;;11.46;87.85
51986;BME280;38002;53.296;6.600;2022-09-27T10:23:27;99774.75;;;11.56;87.83
51986;BME280;38002;53.296;6.600;2022-09-27T10:28:38;99775.94;;;11.68;87.81
51986;BME280;38002;53.296;6.600;2022-09-27T10:33:55;99769.06;;;11.94;88.26
51986;BME280;38002;53.296;6.600;2022-09-27T10:39:02;99767.56;;;12.19;87.34
51986;BME280;38002;53.296;6.600;2022-09-27T10:44:20;99761.63;;;12.43;87.15
51986;BME280;38002;53.296;6.600;2022-09-27T10:49:27;99729.16;;;12.48;86.99
51986;BME280;38002;53.296;6.600;2022-09-27T10:54:31;99763.75;;;12.89;85.81
51986;BME280;38002;53.296;6.600;2022-09-27T10:59:35;99758.72;;;12.92;85.60
51986;BME280;38002;53.296;6.600;2022-09-27T11:04:36;99767.78;;;12.99;85.23
51986;BME280;38002;53.296;6.600;2022-09-27T11:09:52;99764.78;;;12.88;84.04
51986;BME280;38002;53.296;6.600;2022-09-27T11:14:59;99758.81;;;12.64;84.55
51986;BME280;38002;53.296;6.600;2022-09-27T11:25:19;99765.72;;;12.26;85.06
51986;BME280;38002;53.296;6.600;2022-09-27T11:30:31;99762.06;;;12.12;85.07
51986;BME280;38002;53.296;6.600;2022-09-27T11:51:37;99799.03;;;12.21;83.63
51986;BME280;38002;53.296;6.600;2022-09-27T12:12:40;99774.69;;;11.71;84.98
51986;BME280;38002;53.296;6.600;2022-09-27T12:17:47;99777.19;;;12.15;85.71
51986;BME280;38002;53.296;6.600;2022-09-27T12:23:01;99770.91;;;12.90;85.59
51986;BME280;38002;53.296;6.600;2022-09-27T12:33:43;99781.41;;;13.60;82.37
51986;BME280;38002;53.296;6.600;2022-09-27T12:39:10;99781.84;;;13.57;82.46
51986;BME280;38002;53.296;6.600;2022-09-27T12:44:14;99785.16;;;13.39;83.29
51986;BME280;38002;53.296;6.600;2022-09-27T12:59:58;99772.75;;;13.30;83.10
51986;BME280;38002;53.296;6.600;2022-09-27T13:11:04;99779.47;;;13.28;80.10
51986;BME280;38002;53.296;6.600;2022-09-27T13:16:08;99773.75;;;13.16;82.90
51986;BME280;38002;53.296;6.600;2022-09-27T13:21:09;99778.31;;;13.09;82.75
51986;BME280;38002;53.296;6.600;2022-09-27T13:42:34;99801.56;;;12.57;82.25
51986;BME280;38002;53.296;6.600;2022-09-27T13:47:43;99800.47;;;12.45;83.04
51986;BME280;38002;53.296;6.600;2022-09-27T13:52:58;99811.09;;;12.34;82.53
51986;BME280;38002;53.296;6.600;2022-09-27T13:58:11;99802.59;;;12.22;83.10
51986;BME280;38002;53.296;6.600;2022-09-27T14:03:17;99808.03;;;12.22;83.50
51986;BME280;38002;53.296;6.600;2022-09-27T14:08:33;99805.91;;;12.17;82.96
51986;BME280;38002;53.296;6.600;2022-09-27T14:13:34;99804.69;;;12.20;83.70
51986;BME280;38002;53.296;6.600;2022-09-27T14:18:43;99797.84;;;12.31;83.28
51986;BME280;38002;53.296;6.600;2022-09-27T14:23:45;99802.66;;;12.28;82.99
51986;BME280;38002;53.296;6.600;2022-09-27T14:28:45;99799.25;;;12.20;82.73
51986;BME280;38002;53.296;6.600;2022-09-27T14:33:46;99804.38;;;12.08;82.87
51986;BME280;38002;53.296;6.600;2022-09-27T14:38:46;99804.97;;;12.04;82.95
51986;BME280;38002;53.296;6.600;2022-09-27T14:43:47;99805.91;;;11.90;82.75
51986;BME280;38002;53.296;6.600;2022-09-27T14:48:50;99806.69;;;11.83;83.07
51986;BME280;38002;53.296;6.600;2022-09-27T14:53:52;99805.56;;;11.78;83.34
51986;BME280;38002;53.296;6.600;2022-09-27T14:59:23;99807.84;;;11.74;82.13
51986;BME280;38002;53.296;6.600;2022-09-27T15:04:28;99805.78;;;11.76;83.12
51986;BME280;38002;53.296;6.600;2022-09-27T15:09:31;99804.34;;;11.80;82.97
51986;BME280;38002;53.296;6.600;2022-09-27T15:14:32;99816.38;;;11.86;83.27
51986;BME280;38002;53.296;6.600;2022-09-27T15:19:36;99818.88;;;11.88;83.12
51986;BME280;38002;53.296;6.600;2022-09-27T15:24:42;99819.66;;;11.81;83.11
51986;BME280;38002;53.296;6.600;2022-09-27T15:29:56;99821.19;;;11.69;82.90
51986;BME280;38002;53.296;6.600;2022-09-27T15:35:05;99821.31;;;11.61;82.79
51986;BME280;38002;53.296;6.600;2022-09-27T15:45:48;99824.69;;;11.42;83.58
51986;BME280;38002;53.296;6.600;2022-09-27T15:50:49;99821.59;;;11.30;83.12
51986;BME280;38002;53.296;6.600;2022-09-27T15:55:49;99824.94;;;11.26;83.70
51986;BME280;38002;53.296;6.600;2022-09-27T16:01:01;99821.94;;;11.21;83.53
51986;BME280;38002;53.296;6.600;2022-09-27T16:06:02;99824.56;;;11.14;83.76
51986;BME280;38002;53.296;6.600;2022-09-27T16:11:03;99818.03;;;11.09;83.64
51986;BME280;38002;53.296;6.600;2022-09-27T16:16:04;99821.09;;;11.06;84.00
51986;BME280;38002;53.296;6.600;2022-09-27T16:21:05;99821.09;;;11.06;83.72
51986;BME280;38002;53.296;6.600;2022-09-27T16:26:05;99819.63;;;11.03;84.03
51986;BME280;38002;53.296;6.600;2022-09-27T16:31:06;99831.72;;;11.01;84.36
51986;BME280;38002;53.296;6.600;2022-09-27T16:36:09;99827.50;;;10.98;84.37
51986;BME280;38002;53.296;6.600;2022-09-27T16:41:13;99828.91;;;10.94;84.26
51986;BME280;38002;53.296;6.600;2022-09-27T16:46:14;99834.06;;;10.89;84.62
51986;BME280;38002;53.296;6.600;2022-09-27T16:51:19;99830.22;;;10.83;84.73
51986;BME280;38002;53.296;6.600;2022-09-27T16:56:39;99825.91;;;10.74;84.71
51986;BME280;38002;53.296;6.600;2022-09-27T17:01:39;99826.69;;;10.68;84.69
51986;BME280;38002;53.296;6.600;2022-09-27T17:06:39;99839.34;;;10.61;85.52
51986;BME280;38002;53.296;6.600;2022-09-27T17:11:40;99841.22;;;10.46;84.21
51986;BME280;38002;53.296;6.600;2022-09-27T17:16:40;99838.56;;;10.23;83.96
51986;BME280;38002;53.296;6.600;2022-09-27T17:21:41;99834.81;;;10.01;84.10
51986;BME280;38002;53.296;6.600;2022-09-27T17:26:43;99837.69;;;9.85;84.60
51986;BME280;38002;53.296;6.600;2022-09-27T17:31:43;99828.94;;;9.75;84.65
51986;BME280;38002;53.296;6.600;2022-09-27T17:36:44;99828.84;;;9.69;84.88
51986;BME280;38002;53.296;6.600;2022-09-27T17:41:48;99818.34;;;9.66;84.59
51986;BME280;38002;53.296;6.600;2022-09-27T17:46:49;99822.63;;;9.60;84.61
51986;BME280;38002;53.296;6.600;2022-09-27T17:52:09;99818.94;;;9.53;84.78
51986;BME280;38002;53.296;6.600;2022-09-27T17:57:09;99815.72;;;9.49;85.67
51986;BME280;38002;53.296;6.600;2022-09-27T18:02:11;99816.28;;;9.45;85.05
51986;BME280;38002;53.296;6.600;2022-09-27T18:07:11;99810.56;;;9.40;85.79
51986;BME280;38002;53.296;6.600;2022-09-27T18:12:12;99816.69;;;9.34;85.38
51986;BME280;38002;53.296;6.600;2022-09-27T18:17:13;99814.16;;;9.32;85.52
51986;BME280;38002;53.296;6.600;2022-09-27T18:22:15;99811.66;;;9.31;85.98
51986;BME280;38002;53.296;6.600;2022-09-27T18:27:16;99813.88;;;9.27;85.50
51986;BME280;38002;53.296;6.600;2022-09-27T18:32:18;99817.78;;;9.25;85.42
51986;BME280;38002;53.296;6.600;2022-09-27T18:37:19;99826.66;;;9.19;85.45
51986;BME280;38002;53.296;6.600;2022-09-27T18:42:19;99824.47;;;9.14;85.53
51986;BME280;38002;53.296;6.600;2022-09-27T18:47:20;99815.69;;;9.04;85.99
51986;BME280;38002;53.296;6.600;2022-09-27T18:52:20;99819.63;;;9.01;85.63
51986;BME280;38002;53.296;6.600;2022-09-27T18:57:20;99821.16;;;8.96;85.54
51986;BME280;38002;53.296;6.600;2022-09-27T19:02:22;99823.06;;;8.87;85.79
51986;BME280;38002;53.296;6.600;2022-09-27T19:07:22;99834.97;;;8.78;86.01
51986;BME280;38002;53.296;6.600;2022-09-27T19:12:22;99828.38;;;8.73;85.76
51986;BME280;38002;53.296;6.600;2022-09-27T19:17:23;99839.75;;;8.68;86.71
51986;BME280;38002;53.296;6.600;2022-09-27T19:22:23;99834.50;;;8.67;86.18
51986;BME280;38002;53.296;6.600;2022-09-27T19:27:24;99831.47;;;8.61;86.32
51986;BME280;38002;53.296;6.600;2022-09-27T19:32:24;99832.66;;;8.59;85.73
51986;BME280;38002;53.296;6.600;2022-09-27T19:37:25;99828.09;;;8.59;87.15
51986;BME280;38002;53.296;6.600;2022-09-27T19:42:25;99826.41;;;8.58;86.43
51986;BME280;38002;53.296;6.600;2022-09-27T19:47:26;99823.19;;;8.55;86.48
51986;BME280;38002;53.296;6.600;2022-09-27T19:52:26;99834.75;;;8.49;86.22
51986;BME280;38002;53.296;6.600;2022-09-27T19:57:27;99822.56;;;8.45;86.22
51986;BME280;38002;53.296;6.600;2022-09-27T20:02:27;99826.63;;;8.41;86.16
51986;BME280;38002;53.296;6.600;2022-09-27T20:07:28;99817.34;;;8.35;87.28
51986;BME280;38002;53.296;6.600;2022-09-27T20:12:28;99834.44;;;8.36;86.81
51986;BME280;38002;53.296;6.600;2022-09-27T20:17:32;99832.25;;;8.31;86.52
51986;BME280;38002;53.296;6.600;2022-09-27T20:22:32;99824.44;;;8.28;86.65
51986;BME280;38002;53.296;6.600;2022-09-27T20:27:36;99835.44;;;8.27;86.45
51986;BME280;38002;53.296;6.600;2022-09-27T20:32:36;99832.88;;;8.25;87.54
51986;BME280;38002;53.296;6.600;2022-09-27T20:37:36;99824.97;;;8.24;87.63
51986;BME280;38002;53.296;6.600;2022-09-27T20:42:37;99814.94;;;8.24;87.06
51986;BME280;38002;53.296;6.600;2022-09-27T20:47:37;99822.91;;;8.26;87.57
51986;BME280;38002;53.296;6.600;2022-09-27T20:52:39;99818.34;;;8.26;87.52
51986;BME280;38002;53.296;6.600;2022-09-27T20:57:39;99815.63;;;8.26;87.34
51986;BME280;38002;53.296;6.600;2022-09-27T21:02:39;99804.97;;;8.16;88.17
51986;BME280;38002;53.296;6.600;2022-09-27T21:07:40;99819.19;;;8.27;87.72
51986;BME280;38002;53.296;6.600;2022-09-27T21:12:40;99820.56;;;8.23;88.05
51986;BME280;38002;53.296;6.600;2022-09-27T21:17:44;99807.00;;;8.23;88.13
51986;BME280;38002;53.296;6.600;2022-09-27T21:22:44;99804.97;;;8.25;87.80
51986;BME280;38002;53.296;6.600;2022-09-27T21:27:45;99802.09;;;8.26;88.21
51986;BME280;38002;53.296;6.600;2022-09-27T21:32:45;99790.41;;;8.26;88.17
51986;BME280;38002;53.296;6.600;2022-09-27T21:37:45;99795.81;;;8.26;87.87
51986;BME280;38002;53.296;6.600;2022-09-27T21:42:48;99797.53;;;8.27;87.62
51986;BME280;38002;53.296;6.600;2022-09-27T21:47:49;99802.63;;;8.30;87.70
51986;BME280;38002;53.296;6.600;2022-09-27T21:52:50;99796.66;;;8.26;88.27
51986;BME280;38002;53.296;6.600;2022-09-27T21:57:51;99796.84;;;8.33;88.20
51986;BME280;38002;53.296;6.600;2022-09-27T22:02:57;99796.84;;;8.33;88.21
51986;BME280;38002;53.296;6.600;2022-09-27T22:07:58;99799.75;;;8.31;87.67
51986;BME280;38002;53.296;6.600;2022-09-27T22:12:58;99794.50;;;8.30;88.25
51986;BME280;38002;53.296;6.600;2022-09-27T22:17:59;99796.50;;;8.28;87.30
51986;BME280;38002;53.296;6.600;2022-09-27T22:23:00;99793.13;;;8.26;87.61
51986;BME280;38002;53.296;6.600;2022-09-27T22:28:01;99796.34;;;8.21;87.62
51986;BME280;38002;53.296;6.600;2022-09-27T22:33:01;99792.28;;;8.17;87.91
51986;BME280;38002;53.296;6.600;2022-09-27T22:38:02;99790.09;;;8.12;87.90
51986;BME280;38002;53.296;6.600;2022-09-27T22:43:02;99784.19;;;8.09;87.58
51986;BME280;38002;53.296;6.600;2022-09-27T22:48:03;99789.44;;;8.10;88.27
51986;BME280;38002;53.296;6.600;2022-09-27T22:53:03;99788.75;;;8.08;87.96
51986;BME280;38002;53.296;6.600;2022-09-27T22:58:03;99782.50;;;8.08;87.94
51986;BME280;38002;53.296;6.600;2022-09-27T23:03:04;99785.56;;;8.05;87.90
51986;BME280;38002;53.296;6.600;2022-09-27T23:08:04;99775.94;;;8.02;87.75
51986;BME280;38002;53.296;6.600;2022-09-27T23:13:05;99766.44;;;7.98;88.21
51986;BME280;38002;53.296;6.600;2022-09-27T23:18:05;99763.41;;;7.93;87.98
51986;BME280;38002;53.296;6.600;2022-09-27T23:23:11;99762.06;;;7.89;88.39
51986;BME280;38002;53.296;6.600;2022-09-27T23:28:12;99765.78;;;7.88;88.20
51986;BME280;38002;53.296;6.600;2022-09-27T23:33:13;99762.91;;;7.82;87.62
51986;BME280;38002;53.296;6.600;2022-09-27T23:38:15;99764.47;;;7.76;88.36
51986;BME280;38002;53.296;6.600;2022-09-27T23:43:15;99762.44;;;7.70;88.38
51986;BME280;38002;53.296;6.600;2022-09-27T23:48:16;99752.28;;;7.64;88.23
51986;BME280;38002;53.296;6.600;2022-09-27T23:53:21;99755.50;;;7.59;87.93
51986;BME280;38002;53.296;6.600;2022-09-27T23:58:21;99752.28;;;7.56;88.43
